Terminal Aerodrome Forecast
Issued by NWS St Louis, MO

Home | Current Version | Previous Version | Graphics & Text | Print | Product List | Glossary On
Versions: 1 2 3 4 5 6 7 8 9 10 11 12 13 14 15 16 17 18 19 20 21 22 23 24 25 26 27
000
FTUS43 KLSX 011700
TAFSTL
TAF
KSTL 011738Z 0118/0224 16008KT P6SM SCT060 BKN250
     FM020200 16007KT P6SM VCTS BKN040CB
     FM020700 17007KT 4SM SHRA VCTS OVC035CB
     FM021500 14007KT P6SM BKN040 OVC080
     FM022100 11010KT 5SM -SHRA VCTS BKN040CB=

USA.gov is the U.S. government's official web portal to all federal, state and local government web resources and services.